Time;durP1;ratioP1;P1;durP2;ratioP2;P2;SDS_P1;SDS_P2;PMS_P1;PMS_P2;Temp;Humidity;BMP_temperature;BMP_pressure;BME280_temperature;BME280_humidity;BME280_pressure;Samples;Min_cycle;Max_cycle;Signal;HPM_P1;HPM_P2
2022/01/09 00:00:54;;;;;;;102.00;76.50;;;;;;;-2.05;66.74;96931.88;109657;1274;22408;-62
2022/01/09 00:03:22;;;;;;;113.90;79.60;;;;;;;-1.95;66.68;96927.32;109646;1274;22514;-61
2022/01/09 00:05:50;;;;;;;109.10;78.80;;;;;;;-1.86;66.87;96920.35;109670;1273;22562;-61
2022/01/09 00:08:18;;;;;;;95.50;74.10;;;;;;;-1.80;66.87;96913.95;109647;1274;22388;-61
2022/01/09 00:10:47;;;;;;;92.80;74.40;;;;;;;-1.74;66.97;96910.55;109651;1273;23300;-61
2022/01/09 00:13:15;;;;;;;89.20;70.10;;;;;;;-1.71;66.98;96909.67;109650;1274;23217;-62
2022/01/09 00:15:44;;;;;;;85.60;70.10;;;;;;;-1.72;66.81;96909.14;109664;1274;22455;-60
2022/01/09 00:18:13;;;;;;;75.70;67.70;;;;;;;-1.72;66.89;96905.34;109649;1274;22454;-61
2022/01/09 00:20:41;;;;;;;72.70;65.10;;;;;;;-1.69;66.88;96906.06;109646;1274;22581;-60
2022/01/09 00:23:10;;;;;;;76.60;67.10;;;;;;;-1.67;66.90;96901.60;109650;1274;22470;-60
2022/01/09 00:25:39;;;;;;;76.40;68.00;;;;;;;-1.68;66.90;96898.84;109526;1274;137929;-60
2022/01/09 00:28:07;;;;;;;72.60;64.60;;;;;;;-1.69;66.94;96896.87;109650;1274;22446;-61
2022/01/09 00:30:35;;;;;;;74.80;64.90;;;;;;;-1.72;66.95;96891.29;109632;1274;22571;-61
2022/01/09 00:33:06;;;;;;;77.90;68.40;;;;;;;-1.71;67.06;96893.50;109647;1274;22467;-61
2022/01/09 00:35:42;;;;;;;73.80;66.00;;;;;;;-1.70;66.95;96890.16;109616;1274;22424;-60
2022/01/09 00:38:25;;;;;;;73.70;65.90;;;;;;;-1.69;66.98;96881.61;109679;1274;22502;-61
2022/01/09 00:40:55;;;;;;;74.90;65.50;;;;;;;-1.69;67.04;96878.60;109619;1274;22475;-60
2022/01/09 00:43:33;;;;;;;73.90;65.80;;;;;;;-1.66;67.10;96876.91;109667;1274;22462;-60
2022/01/09 00:46:03;;;;;;;71.70;63.30;;;;;;;-1.58;67.15;96871.45;109653;1273;22482;-60
2022/01/09 00:48:30;;;;;;;74.20;66.50;;;;;;;-1.49;67.13;96866.59;109671;1274;23784;-61
2022/01/09 00:50:59;;;;;;;70.60;63.00;;;;;;;-1.44;67.09;96867.02;109667;1274;22640;-61
2022/01/09 00:53:27;;;;;;;75.50;67.00;;;;;;;-1.40;67.14;96868.48;109661;1274;22617;-61
2022/01/09 00:55:55;;;;;;;77.50;68.50;;;;;;;-1.39;67.19;96867.50;109553;1274;137403;-60
2022/01/09 00:58:24;;;;;;;66.30;59.30;;;;;;;-1.39;67.15;96860.27;109672;1274;22417;-61
2022/01/09 01:00:53;;;;;;;72.30;64.80;;;;;;;-1.39;67.15;96857.17;109653;1274;22802;-61
2022/01/09 01:03:21;;;;;;;72.10;64.60;;;;;;;-1.35;67.21;96857.48;109658;1274;22683;-61
2022/01/09 01:05:49;;;;;;;68.30;61.40;;;;;;;-1.32;67.47;96849.21;109659;1273;22514;-61
2022/01/09 01:08:18;;;;;;;68.50;61.50;;;;;;;-1.30;67.18;96846.77;109667;1274;23167;-61
2022/01/09 01:10:46;;;;;;;68.20;61.20;;;;;;;-1.30;67.30;96843.70;109651;1274;22545;-60
2022/01/09 01:13:14;;;;;;;75.20;67.10;;;;;;;-1.30;67.37;96842.48;109665;1274;22583;-60
2022/01/09 01:15:42;;;;;;;73.40;65.50;;;;;;;-1.30;67.34;96843.27;109663;1272;22465;-60
2022/01/09 01:18:10;;;;;;;81.50;68.50;;;;;;;-1.30;67.26;96841.48;109680;1274;22436;-60
2022/01/09 01:20:38;;;;;;;70.10;62.90;;;;;;;-1.29;67.57;96838.80;109620;1274;23209;-59
2022/01/09 01:23:06;;;;;;;73.70;65.80;;;;;;;-1.25;67.53;96837.83;109682;1273;22607;-60
2022/01/09 01:25:36;;;;;;;82.10;71.80;;;;;;;-1.24;67.36;96836.41;109675;1274;22465;-59
2022/01/09 01:28:04;;;;;;;110.00;79.20;;;;;;;-1.24;67.43;96832.14;109678;1274;23033;-60
2022/01/09 01:30:32;;;;;;;112.00;79.60;;;;;;;-1.24;67.37;96826.48;109651;1273;22619;-60
2022/01/09 01:33:02;;;;;;;97.20;73.40;;;;;;;-1.22;67.45;96824.91;109674;1274;22489;-59
2022/01/09 01:35:30;;;;;;;85.70;72.40;;;;;;;-1.16;67.38;96825.98;109656;1274;22934;-60
2022/01/09 01:37:58;;;;;;;112.40;81.00;;;;;;;-1.10;67.48;96825.66;109666;1274;23294;-59
2022/01/09 01:40:32;;;;;;;111.00;79.50;;;;;;;-1.05;67.65;96828.83;109678;1273;22604;-60
2022/01/09 01:43:12;;;;;;;117.00;82.90;;;;;;;-1.01;67.50;96829.33;109671;1273;23174;-60
2022/01/09 01:45:40;;;;;;;97.10;76.50;;;;;;;-1.00;67.54;96820.55;109673;1274;22495;-60
2022/01/09 01:48:09;;;;;;;88.40;71.00;;;;;;;-1.00;67.46;96818.25;109661;1273;22534;-60
2022/01/09 01:50:38;;;;;;;93.00;75.40;;;;;;;-0.98;67.61;96816.10;109666;1274;22464;-59
2022/01/09 01:53:11;;;;;;;84.40;71.20;;;;;;;-0.97;67.72;96806.23;109649;1274;22427;-60
2022/01/09 01:55:41;;;;;;;79.90;71.10;;;;;;;-0.97;67.68;96800.29;109678;1273;22617;-60
2022/01/09 01:58:10;;;;;;;89.80;76.40;;;;;;;-0.99;67.71;96794.41;109686;1274;23126;-61
2022/01/09 02:00:40;;;;;;;93.40;75.00;;;;;;;-1.00;67.64;96793.51;109679;1274;22470;-60
2022/01/09 02:03:11;;;;;;;84.40;72.90;;;;;;;-0.99;67.81;96792.92;109679;1273;23248;-61
2022/01/09 02:05:45;;;;;;;73.00;65.60;;;;;;;-1.00;67.78;96793.88;109683;1274;22457;-61
2022/01/09 02:08:19;;;;;;;74.00;66.50;;;;;;;-1.01;67.75;96787.68;109661;1274;22486;-61
2022/01/09 02:10:48;;;;;;;74.70;66.60;;;;;;;-1.05;67.56;96785.05;109681;1273;23195;-61
2022/01/09 02:13:19;;;;;;;74.30;66.70;;;;;;;-1.06;67.54;96779.76;109666;1274;23211;-60
2022/01/09 02:15:57;;;;;;;70.80;63.60;;;;;;;-1.05;67.71;96778.92;109687;1272;22521;-61
2022/01/09 02:18:25;;;;;;;72.40;64.80;;;;;;;-1.05;67.92;96778.97;109682;1274;23175;-60
2022/01/09 02:20:59;;;;;;;67.00;59.80;;;;;;;-1.02;67.84;96770.79;109691;1274;22455;-62
2022/01/09 02:23:34;;;;;;;67.30;59.00;;;;;;;-0.97;67.71;96772.86;109669;1273;22452;-60
2022/01/09 02:26:06;;;;;;;70.00;62.40;;;;;;;-0.90;67.81;96777.39;109678;1274;22460;-61
2022/01/09 02:28:40;;;;;;;98.50;79.80;;;;;;;-0.86;67.72;96777.10;109290;1274;470592;-60
2022/01/09 02:31:14;;;;;;;88.70;73.90;;;;;;;-0.82;67.90;96780.64;109656;1274;22458;-61
2022/01/09 02:33:47;;;;;;;73.70;66.30;;;;;;;-0.82;68.05;96771.59;109659;1274;23087;-61
2022/01/09 02:36:20;;;;;;;72.40;64.60;;;;;;;-0.81;68.01;96759.38;109659;1274;23187;-60
2022/01/09 02:38:54;;;;;;;72.90;65.40;;;;;;;-0.82;68.04;96756.73;109675;1272;22415;-61
2022/01/09 02:41:28;;;;;;;77.80;68.50;;;;;;;-0.83;67.94;96756.30;109663;1274;22268;-61
2022/01/09 02:44:07;;;;;;;71.40;64.20;;;;;;;-0.86;67.95;96757.85;109663;1274;22147;-61
2022/01/09 02:49:09;;;;;;;66.40;59.20;;;;;;;-0.95;67.69;96750.81;109668;1273;22507;-61
2022/01/09 02:51:45;;;;;;;65.10;58.10;;;;;;;-0.98;67.80;96742.64;109663;1274;22524;-61
2022/01/09 02:57:00;;;;;;;64.00;57.30;;;;;;;-1.09;67.86;96747.52;109663;1273;22560;-61
2022/01/09 02:59:28;;;;;;;63.80;57.20;;;;;;;-1.14;67.59;96742.51;109681;1273;22659;-61
2022/01/09 03:01:56;;;;;;;68.80;61.50;;;;;;;-1.18;67.79;96742.01;109619;1272;22510;-61
2022/01/09 03:04:25;;;;;;;69.90;62.50;;;;;;;-1.22;67.76;96740.59;109673;1272;22384;-61
2022/01/09 03:06:54;;;;;;;72.70;60.70;;;;;;;-1.25;67.75;96739.88;109667;1271;22518;-61
2022/01/09 03:09:22;;;;;;;66.20;59.30;;;;;;;-1.30;67.62;96733.28;109659;1274;22568;-60
2022/01/09 03:11:50;;;;;;;68.80;61.30;;;;;;;-1.37;67.58;96729.42;109678;1274;22505;-59
2022/01/09 03:14:18;;;;;;;65.80;58.70;;;;;;;-1.43;67.83;96718.70;109669;1274;22501;-59
2022/01/09 03:16:46;;;;;;;67.90;59.20;;;;;;;-1.46;67.75;96709.73;109674;1274;22510;-60
2022/01/09 03:19:14;;;;;;;73.80;61.60;;;;;;;-1.46;67.68;96697.70;109685;1274;22508;-60
2022/01/09 03:21:42;;;;;;;69.20;62.00;;;;;;;-1.47;67.66;96694.50;109647;1272;23229;-59
2022/01/09 03:24:10;;;;;;;70.80;63.30;;;;;;;-1.48;67.86;96692.27;109649;1272;22470;-61
2022/01/09 03:26:39;;;;;;;67.50;60.30;;;;;;;-1.49;67.88;96688.94;109672;1274;22518;-61
2022/01/09 03:29:07;;;;;;;68.10;61.00;;;;;;;-1.51;68.03;96684.27;109683;1273;22866;-61
2022/01/09 03:31:35;;;;;;;66.40;59.20;;;;;;;-1.54;68.07;96688.34;109654;1274;22422;-61
2022/01/09 03:34:03;;;;;;;62.70;56.40;;;;;;;-1.60;67.93;96684.98;109664;1274;22531;-61
2022/01/09 03:36:30;;;;;;;63.20;56.40;;;;;;;-1.65;68.07;96679.60;109661;1274;22457;-60
2022/01/09 03:38:58;;;;;;;63.40;56.60;;;;;;;-1.69;67.87;96677.34;109667;1274;23140;-60
2022/01/09 03:41:27;;;;;;;63.00;56.30;;;;;;;-1.75;68.04;96676.35;109669;1272;22500;-61
2022/01/09 03:43:55;;;;;;;69.60;62.10;;;;;;;-1.82;67.98;96673.21;109664;1274;22496;-61
2022/01/09 03:46:24;;;;;;;69.60;62.30;;;;;;;-1.88;67.94;96670.31;109624;1272;22280;-60
2022/01/09 03:48:52;;;;;;;68.80;61.80;;;;;;;-1.95;67.85;96664.95;109669;1274;23325;-61
2022/01/09 03:51:24;;;;;;;71.60;64.00;;;;;;;-2.03;68.01;96660.69;109670;1274;22351;-60
2022/01/09 03:53:52;;;;;;;66.90;59.80;;;;;;;-2.10;68.00;96659.67;109684;1274;22731;-61
2022/01/09 03:56:20;;;;;;;63.90;57.20;;;;;;;-2.16;68.02;96663.05;109648;1274;22406;-61
2022/01/09 03:58:48;;;;;;;62.60;55.80;;;;;;;-2.21;68.08;96663.98;109681;1273;23109;-61
2022/01/09 04:01:16;;;;;;;61.30;54.50;;;;;;;-2.25;68.15;96663.56;109654;1274;22896;-61
2022/01/09 04:03:44;;;;;;;62.70;56.10;;;;;;;-2.25;68.02;96661.05;109686;1274;22447;-61
2022/01/09 04:06:12;;;;;;;67.10;60.10;;;;;;;-2.23;68.06;96662.27;109675;1273;22544;-60
2022/01/09 04:08:40;;;;;;;61.90;55.20;;;;;;;-2.24;68.01;96663.48;109673;1273;22458;-60
2022/01/09 04:11:09;;;;;;;69.10;59.70;;;;;;;-2.29;68.07;96659.73;109666;1274;22495;-60
2022/01/09 04:13:38;;;;;;;62.80;56.30;;;;;;;-2.32;68.17;96655.37;109660;1273;22429;-60
2022/01/09 04:16:06;;;;;;;65.50;58.80;;;;;;;-2.36;68.20;96649.53;109673;1272;22364;-60
2022/01/09 04:18:34;;;;;;;67.70;60.60;;;;;;;-2.41;68.21;96646.14;109675;1273;23192;-60
2022/01/09 04:21:02;;;;;;;68.80;61.30;;;;;;;-2.47;68.30;96652.45;109659;1273;22584;-60
2022/01/09 04:23:30;;;;;;;68.20;61.10;;;;;;;-2.54;68.27;96649.21;109672;1274;22554;-60
2022/01/09 04:25:58;;;;;;;69.40;61.90;;;;;;;-2.58;68.40;96654.44;109668;1274;23296;-61
2022/01/09 04:28:27;;;;;;;81.30;65.60;;;;;;;-2.62;68.32;96658.77;109666;1274;22757;-60
2022/01/09 04:30:55;;;;;;;73.90;65.70;;;;;;;-2.65;68.48;96660.05;109657;1274;22686;-60
2022/01/09 04:33:24;;;;;;;71.60;63.90;;;;;;;-2.70;68.50;96656.17;109623;1274;22406;-60
2022/01/09 04:35:54;;;;;;;73.20;65.80;;;;;;;-2.81;68.11;96652.50;109686;1274;23145;-60
2022/01/09 04:38:22;;;;;;;71.20;63.60;;;;;;;-2.91;68.14;96656.22;109680;1271;23127;-60
2022/01/09 04:40:50;;;;;;;73.80;65.10;;;;;;;-3.01;68.11;96659.08;109657;1273;22758;-60
2022/01/09 04:43:18;;;;;;;71.60;64.40;;;;;;;-3.05;68.24;96659.71;109665;1274;22514;-60
2022/01/09 04:45:47;;;;;;;68.20;61.20;;;;;;;-3.05;68.51;96664.55;109677;1273;22442;-60
2022/01/09 04:48:15;;;;;;;72.60;64.60;;;;;;;-3.11;68.28;96667.11;109672;1273;23218;-59
2022/01/09 04:50:45;;;;;;;74.10;66.50;;;;;;;-3.22;68.16;96664.14;109666;1273;22464;-60
2022/01/09 04:53:13;;;;;;;74.60;66.60;;;;;;;-3.38;68.21;96665.34;109668;1273;22567;-59
2022/01/09 04:55:49;;;;;;;76.60;68.60;;;;;;;-3.52;68.44;96670.05;109618;1274;22447;-60
2022/01/09 04:58:18;;;;;;;81.90;73.00;;;;;;;-3.69;68.32;96672.27;109690;1273;23131;-60
2022/01/09 05:00:46;;;;;;;83.80;74.60;;;;;;;-3.85;68.62;96675.14;109607;1273;22606;-60
2022/01/09 05:03:16;;;;;;;81.30;72.90;;;;;;;-3.95;69.29;96673.90;109654;1274;22351;-60
2022/01/09 05:05:44;;;;;;;78.60;70.30;;;;;;;-3.99;69.30;96675.16;109662;1272;22534;-60
2022/01/09 05:08:12;;;;;;;79.30;69.70;;;;;;;-3.99;69.27;96681.57;109635;1274;23167;-60
2022/01/09 05:10:40;;;;;;;82.00;73.20;;;;;;;-3.97;69.55;96686.69;109672;1272;22478;-60
2022/01/09 05:13:08;;;;;;;93.60;81.80;;;;;;;-3.96;69.49;96686.95;109658;1273;22396;-60
2022/01/09 05:15:36;;;;;;;90.50;80.30;;;;;;;-3.97;69.57;96687.50;109668;1273;22531;-60
2022/01/09 05:18:12;;;;;;;136.60;102.00;;;;;;;-3.96;69.74;96693.48;109666;1273;22538;-61
2022/01/09 05:20:42;;;;;;;197.70;169.20;;;;;;;-3.97;70.25;96691.52;109662;1273;23237;-61
2022/01/09 05:23:10;;;;;;;109.70;92.70;;;;;;;-3.95;69.98;96693.11;109667;1273;23276;-60
2022/01/09 05:25:38;;;;;;;157.20;116.20;;;;;;;-3.94;69.94;96692.33;109668;1273;22450;-60
2022/01/09 05:28:07;;;;;;;116.70;99.60;;;;;;;-3.94;70.06;96692.77;109659;1272;22439;-60
2022/01/09 05:30:35;;;;;;;105.40;86.70;;;;;;;-3.91;70.04;96692.41;109659;1274;23324;-60
2022/01/09 05:33:02;;;;;;;110.50;82.30;;;;;;;-3.88;70.17;96692.20;109658;1273;22566;-60
2022/01/09 05:35:31;;;;;;;103.20;81.70;;;;;;;-3.82;69.91;96690.77;109614;1274;23267;-60
2022/01/09 05:37:59;;;;;;;84.30;74.70;;;;;;;-3.74;70.08;96686.75;109645;1274;23172;-60
2022/01/09 05:40:27;;;;;;;80.50;69.10;;;;;;;-3.67;70.01;96679.30;109647;1272;22448;-60
2022/01/09 05:42:55;;;;;;;89.90;76.90;;;;;;;-3.66;69.88;96677.42;109672;1274;22399;-60
2022/01/09 05:45:23;;;;;;;83.10;74.00;;;;;;;-3.66;69.95;96671.42;109682;1272;22419;-60
2022/01/09 05:47:51;;;;;;;80.50;72.20;;;;;;;-3.68;69.97;96670.86;109677;1274;23243;-60
2022/01/09 05:50:20;;;;;;;82.30;73.40;;;;;;;-3.70;70.20;96674.30;109679;1273;22454;-60
2022/01/09 05:52:48;;;;;;;84.80;75.80;;;;;;;-3.66;70.37;96670.09;109671;1272;22394;-59
2022/01/09 05:55:16;;;;;;;84.20;75.80;;;;;;;-3.61;70.52;96674.55;109685;1274;22451;-60
2022/01/09 05:57:44;;;;;;;79.50;71.40;;;;;;;-3.56;70.45;96675.02;109662;1274;23301;-60
2022/01/09 06:00:14;;;;;;;73.40;65.50;;;;;;;-3.48;70.44;96674.29;109673;1272;22485;-60
2022/01/09 06:02:45;;;;;;;66.10;59.30;;;;;;;-3.38;70.49;96674.65;109606;1274;22428;-61
2022/01/09 06:05:14;;;;;;;67.90;60.90;;;;;;;-3.27;70.38;96677.35;109656;1273;22354;-60
2022/01/09 06:07:43;;;;;;;65.50;58.80;;;;;;;-3.16;70.66;96673.89;109600;1274;23132;-61
2022/01/09 06:10:12;;;;;;;64.50;57.50;;;;;;;-3.06;70.65;96671.29;109670;1274;22479;-60
2022/01/09 06:12:40;;;;;;;68.50;61.00;;;;;;;-3.00;70.59;96673.39;109658;1274;22539;-60
2022/01/09 06:15:08;;;;;;;64.70;58.20;;;;;;;-2.93;70.79;96670.47;109661;1274;22458;-61
2022/01/09 06:17:38;;;;;;;60.20;54.20;;;;;;;-2.88;70.63;96673.29;109659;1274;23121;-61
2022/01/09 06:20:08;;;;;;;58.40;52.60;;;;;;;-2.84;70.86;96677.77;109671;1273;22457;-61
2022/01/09 06:22:36;;;;;;;59.40;53.60;;;;;;;-2.79;70.81;96673.98;109675;1274;22515;-60
2022/01/09 06:25:05;;;;;;;59.60;53.20;;;;;;;-2.74;70.71;96675.48;109673;1274;22688;-60
2022/01/09 06:27:33;;;;;;;57.40;51.30;;;;;;;-2.66;70.89;96682.80;109683;1274;22530;-60
2022/01/09 06:30:03;;;;;;;66.10;59.40;;;;;;;-2.56;70.80;96684.10;109625;1274;23322;-59
2022/01/09 06:32:31;;;;;;;59.80;53.80;;;;;;;-2.45;70.82;96688.35;109661;1274;22444;-59
2022/01/09 06:34:59;;;;;;;60.90;54.90;;;;;;;-2.35;70.85;96688.64;109679;1274;23311;-59
2022/01/09 06:37:27;;;;;;;62.70;56.50;;;;;;;-2.28;70.92;96688.67;109653;1272;22481;-59
2022/01/09 06:39:55;;;;;;;64.20;57.30;;;;;;;-2.20;71.02;96686.38;109692;1274;22427;-59
2022/01/09 06:42:24;;;;;;;70.10;62.80;;;;;;;-2.15;71.08;96688.50;109672;1271;22253;-59
2022/01/09 06:44:52;;;;;;;104.50;83.10;;;;;;;-2.11;70.93;96692.88;109666;1274;22402;-59
2022/01/09 06:47:20;;;;;;;111.30;85.50;;;;;;;-2.10;71.00;96690.98;109668;1272;22510;-59
2022/01/09 06:49:48;;;;;;;94.40;79.60;;;;;;;-2.10;70.91;96692.40;109610;1274;22449;-59
2022/01/09 06:52:16;;;;;;;108.80;85.10;;;;;;;-2.11;70.93;96690.60;109660;1274;23017;-60
2022/01/09 06:54:44;;;;;;;77.30;69.40;;;;;;;-2.13;70.85;96693.27;109660;1274;22524;-60
2022/01/09 06:57:12;;;;;;;69.60;63.00;;;;;;;-2.16;70.94;96692.48;109658;1273;23274;-60
2022/01/09 06:59:40;;;;;;;65.80;59.30;;;;;;;-2.18;70.90;96693.95;109683;1272;22394;-59
2022/01/09 07:02:08;;;;;;;57.60;51.70;;;;;;;-2.18;70.80;96698.17;109682;1274;22420;-60
2022/01/09 07:04:36;;;;;;;61.30;55.00;;;;;;;-2.16;70.74;96694.92;109682;1274;22564;-60
2022/01/09 07:07:05;;;;;;;66.10;59.40;;;;;;;-2.13;70.87;96695.96;109659;1274;23002;-59
2022/01/09 07:09:33;;;;;;;62.40;56.20;;;;;;;-2.10;70.93;96698.11;109677;1274;23189;-59
2022/01/09 07:12:01;;;;;;;65.20;58.60;;;;;;;-2.07;70.86;96695.18;109538;1274;23112;-59
2022/01/09 07:14:29;;;;;;;56.80;51.20;;;;;;;-2.08;70.98;96685.83;109602;1274;23119;-59
2022/01/09 07:16:57;;;;;;;51.60;46.50;;;;;;;-2.06;71.01;96683.83;109668;1273;23214;-60
2022/01/09 07:19:25;;;;;;;54.90;49.50;;;;;;;-2.06;70.93;96688.13;109680;1273;22511;-60
2022/01/09 07:21:54;;;;;;;52.80;47.50;;;;;;;-2.05;71.08;96695.30;109611;1274;22392;-59
2022/01/09 07:24:22;;;;;;;52.70;47.60;;;;;;;-2.06;71.04;96697.58;109680;1274;23030;-59
2022/01/09 07:26:50;;;;;;;48.10;43.40;;;;;;;-2.08;70.98;96693.27;109669;1274;22412;-60
2022/01/09 07:29:18;;;;;;;50.10;45.10;;;;;;;-2.08;70.99;96694.54;109655;1274;22674;-59
2022/01/09 07:31:47;;;;;;;47.20;42.40;;;;;;;-2.09;70.93;96688.71;109676;1273;23203;-60
2022/01/09 07:34:15;;;;;;;48.40;43.30;;;;;;;-2.08;70.90;96685.20;109671;1273;22454;-60
2022/01/09 07:36:43;;;;;;;53.00;47.60;;;;;;;-2.04;70.91;96688.61;109620;1274;22517;-59
2022/01/09 07:39:11;;;;;;;50.60;45.50;;;;;;;-2.00;71.03;96690.41;109661;1274;22500;-59
2022/01/09 07:41:40;;;;;;;53.80;48.50;;;;;;;-1.97;71.12;96678.98;109668;1273;22449;-60
2022/01/09 07:44:08;;;;;;;55.90;50.60;;;;;;;-1.93;71.27;96674.05;109668;1274;22522;-58
2022/01/09 07:46:36;;;;;;;54.70;49.50;;;;;;;-1.90;71.16;96675.20;109663;1273;23163;-60
2022/01/09 07:49:04;;;;;;;55.80;50.50;;;;;;;-1.87;71.17;96674.06;109655;1273;23086;-60
2022/01/09 07:51:32;;;;;;;53.20;48.00;;;;;;;-1.86;71.13;96673.81;109663;1271;22446;-60
2022/01/09 07:54:19;;;;;;;55.20;50.10;;;;;;;-1.85;71.16;96668.91;109687;1274;22493;-60
2022/01/09 07:56:47;;;;;;;55.00;49.80;;;;;;;-1.83;71.32;96672.98;109668;1274;22540;-60
2022/01/09 07:59:16;;;;;;;53.40;48.30;;;;;;;-1.79;71.31;96668.63;109669;1274;22512;-60
2022/01/09 08:01:49;;;;;;;51.60;46.90;;;;;;;-1.77;71.27;96668.88;109610;1274;22505;-60
2022/01/09 08:04:18;;;;;;;51.80;46.40;;;;;;;-1.73;71.28;96672.46;109606;1274;23219;-61
2022/01/09 08:06:46;;;;;;;52.90;47.70;;;;;;;-1.67;71.20;96669.23;109671;1274;23274;-61
2022/01/09 08:09:14;;;;;;;56.30;50.90;;;;;;;-1.58;71.29;96673.42;109655;1273;22568;-61
2022/01/09 08:11:42;;;;;;;62.40;56.70;;;;;;;-1.50;71.20;96668.02;109689;1273;23318;-61
2022/01/09 08:14:10;;;;;;;72.80;66.10;;;;;;;-1.43;71.14;96668.27;109653;1274;22440;-59
2022/01/09 08:16:38;;;;;;;68.90;62.20;;;;;;;-1.37;71.22;96668.59;109678;1274;23314;-59
2022/01/09 08:19:06;;;;;;;69.60;62.90;;;;;;;-1.33;71.13;96669.62;109660;1273;22581;-60
2022/01/09 08:21:34;;;;;;;66.30;59.90;;;;;;;-1.31;71.09;96667.73;109679;1274;22538;-61
2022/01/09 08:24:02;;;;;;;61.20;55.30;;;;;;;-1.27;71.25;96668.35;109663;1272;22461;-61
2022/01/09 08:26:30;;;;;;;57.50;52.10;;;;;;;-1.24;71.23;96664.73;109669;1272;22556;-61
2022/01/09 08:28:58;;;;;;;56.30;50.70;;;;;;;-1.23;71.00;96659.25;109683;1272;22513;-60
2022/01/09 08:31:27;;;;;;;58.50;52.80;;;;;;;-1.22;71.09;96657.66;109685;1272;23185;-61
2022/01/09 08:33:55;;;;;;;61.20;55.20;;;;;;;-1.24;70.92;96655.27;109681;1274;23231;-62
2022/01/09 08:36:23;;;;;;;59.60;53.50;;;;;;;-1.24;71.01;96657.54;109619;1274;22551;-64
2022/01/09 08:38:52;;;;;;;56.50;50.50;;;;;;;-1.21;71.04;96657.61;109633;1274;22398;-61
2022/01/09 08:41:20;;;;;;;60.10;54.20;;;;;;;-1.14;71.03;96655.71;109679;1273;22532;-61
2022/01/09 08:43:48;;;;;;;59.70;53.60;;;;;;;-1.10;70.98;96654.67;109664;1274;22410;-60
2022/01/09 08:46:16;;;;;;;63.00;56.70;;;;;;;-1.06;71.02;96653.34;109693;1272;23171;-60
2022/01/09 08:48:44;;;;;;;61.40;55.30;;;;;;;-1.03;71.09;96646.85;109663;1273;23314;-60
2022/01/09 08:51:12;;;;;;;64.30;58.00;;;;;;;-0.99;71.08;96646.61;109664;1274;23184;-62
2022/01/09 08:53:41;;;;;;;61.00;54.70;;;;;;;-0.98;70.96;96643.91;109670;1273;22606;-61
2022/01/09 08:56:09;;;;;;;60.80;54.80;;;;;;;-0.95;71.28;96641.02;109656;1273;22533;-61
2022/01/09 08:58:37;;;;;;;66.60;59.80;;;;;;;-0.91;71.24;96641.80;109689;1274;23099;-60
2022/01/09 09:01:05;;;;;;;69.00;62.00;;;;;;;-0.87;71.04;96644.35;109648;1273;23671;-60
2022/01/09 09:03:36;;;;;;;72.80;65.30;;;;;;;-0.82;71.13;96638.73;109679;1274;22560;-60
2022/01/09 09:06:04;;;;;;;70.50;63.40;;;;;;;-0.78;70.99;96642.71;109667;1272;22354;-60
2022/01/09 09:08:33;;;;;;;67.60;60.70;;;;;;;-0.71;71.07;96642.44;109627;1274;22459;-61
2022/01/09 09:11:01;;;;;;;66.00;59.50;;;;;;;-0.61;70.97;96642.42;109667;1274;22456;-60
2022/01/09 09:13:29;;;;;;;64.30;57.60;;;;;;;-0.49;70.98;96635.60;109686;1274;22553;-60
2022/01/09 09:15:57;;;;;;;70.20;56.60;;;;;;;-0.38;71.05;96632.46;109666;1274;22557;-61
2022/01/09 09:18:25;;;;;;;62.00;55.50;;;;;;;-0.30;70.95;96631.42;109670;1274;22498;-61
2022/01/09 09:20:54;;;;;;;59.80;53.70;;;;;;;-0.26;70.92;96631.92;109674;1273;22445;-61
2022/01/09 09:23:23;;;;;;;62.50;56.50;;;;;;;-0.20;70.72;96631.46;109680;1274;22401;-61
2022/01/09 09:25:51;;;;;;;61.60;54.90;;;;;;;-0.15;70.97;96630.10;109698;1273;23094;-61
2022/01/09 09:28:20;;;;;;;66.00;59.30;;;;;;;-0.09;70.84;96627.26;109683;1274;22446;-61
2022/01/09 09:30:48;;;;;;;68.60;61.90;;;;;;;-0.05;70.89;96624.40;109676;1274;23125;-61
2022/01/09 09:33:16;;;;;;;71.20;63.30;;;;;;;0.03;70.90;96625.70;109667;1273;22458;-61
2022/01/09 09:35:44;;;;;;;69.20;62.10;;;;;;;0.09;70.73;96625.55;109665;1274;22428;-59
2022/01/09 09:38:12;;;;;;;75.10;67.40;;;;;;;0.14;70.60;96621.95;109657;1274;22447;-60
2022/01/09 09:40:40;;;;;;;74.40;66.30;;;;;;;0.19;70.50;96624.29;109678;1274;22589;-61
2022/01/09 09:43:08;;;;;;;79.20;67.50;;;;;;;0.22;70.33;96623.80;109682;1273;23640;-61
2022/01/09 09:45:37;;;;;;;75.10;67.70;;;;;;;0.28;70.69;96626.21;109653;1274;22549;-62
2022/01/09 09:48:05;;;;;;;83.00;73.90;;;;;;;0.34;70.51;96625.52;109678;1273;22495;-60
2022/01/09 09:50:33;;;;;;;77.50;66.80;;;;;;;0.42;70.57;96627.76;109656;1274;22479;-61
2022/01/09 09:53:02;;;;;;;72.50;65.30;;;;;;;0.52;70.27;96624.42;109652;1273;22465;-62
2022/01/09 09:55:30;;;;;;;72.50;65.20;;;;;;;0.63;70.36;96624.05;109600;1274;22448;-61
2022/01/09 09:57:58;;;;;;;65.10;57.90;;;;;;;0.70;70.38;96626.64;109661;1274;22355;-60
2022/01/09 10:00:27;;;;;;;59.20;53.30;;;;;;;0.76;70.27;96624.09;109667;1274;22257;-61
2022/01/09 10:03:00;;;;;;;57.90;52.00;;;;;;;0.83;70.28;96622.70;109643;1273;22485;-60
2022/01/09 10:05:39;;;;;;;55.80;50.20;;;;;;;0.91;70.17;96615.41;109683;1274;22616;-61
2022/01/09 10:08:15;;;;;;;59.70;53.80;;;;;;;0.98;69.83;96623.05;109682;1273;22559;-61
2022/01/09 10:10:43;;;;;;;55.80;50.20;;;;;;;1.03;69.78;96624.64;109669;1273;22502;-60
2022/01/09 10:13:17;;;;;;;58.00;52.00;;;;;;;1.07;69.59;96622.77;109662;1274;22561;-59
2022/01/09 10:15:56;;;;;;;57.40;51.60;;;;;;;1.11;69.87;96621.91;109681;1272;22476;-61
2022/01/09 10:18:46;;;;;;;57.10;51.50;;;;;;;1.19;70.04;96615.46;109665;1274;22459;-61
2022/01/09 10:21:24;;;;;;;54.60;49.10;;;;;;;1.28;69.80;96610.09;109674;1274;23212;-61
2022/01/09 10:24:07;;;;;;;39.50;35.50;;;;;;;1.37;69.57;96611.13;109688;1274;22562;-61
2022/01/09 10:26:38;;;;;;;31.20;28.10;;;;;;;1.46;69.06;96609.13;109668;1272;22556;-60
2022/01/09 10:29:08;;;;;;;30.40;27.40;;;;;;;1.55;68.75;96608.92;109660;1272;23316;-60
2022/01/09 10:31:46;;;;;;;31.40;28.10;;;;;;;1.66;68.93;96602.40;109655;1274;22459;-61
2022/01/09 10:34:16;;;;;;;31.60;28.40;;;;;;;1.77;68.96;96602.52;109673;1273;22453;-61
2022/01/09 10:36:48;;;;;;;30.40;27.40;;;;;;;1.86;68.42;96594.38;109619;1274;23179;-60
2022/01/09 10:39:19;;;;;;;35.10;31.50;;;;;;;1.91;68.29;96593.14;109652;1274;23329;-60
2022/01/09 10:41:58;;;;;;;37.00;30.90;;;;;;;1.99;67.83;96592.29;109689;1274;22511;-61
2022/01/09 10:44:33;;;;;;;51.50;46.10;;;;;;;2.07;68.37;96591.97;109686;1274;22406;-61
2022/01/09 10:47:06;;;;;;;48.60;43.60;;;;;;;2.15;68.20;96594.79;109661;1272;23182;-61
2022/01/09 10:49:43;;;;;;;28.10;25.10;;;;;;;2.22;67.84;96592.89;109659;1274;22489;-61
2022/01/09 10:52:26;;;;;;;23.10;20.80;;;;;;;2.32;67.95;96593.06;109661;1273;22546;-61
2022/01/09 10:54:56;;;;;;;22.80;20.40;;;;;;;2.38;67.71;96591.74;109679;1274;22556;-61
2022/01/09 10:57:26;;;;;;;24.20;20.90;;;;;;;2.44;66.71;96592.81;109671;1274;22510;-60
2022/01/09 11:00:07;;;;;;;23.30;21.00;;;;;;;2.47;66.79;96595.98;109631;1274;22439;-60
2022/01/09 11:02:36;;;;;;;28.20;25.20;;;;;;;2.48;66.10;96596.09;109681;1274;22543;-60
2022/01/09 11:05:04;;;;;;;30.40;27.30;;;;;;;2.54;66.26;96600.30;109676;1274;22508;-61
2022/01/09 11:07:33;;;;;;;29.00;23.50;;;;;;;2.60;66.20;96600.23;109615;1274;22453;-60
2022/01/09 11:10:06;;;;;;;27.00;24.20;;;;;;;2.61;65.40;96599.60;109673;1274;23185;-60
2022/01/09 11:12:45;;;;;;;26.90;24.10;;;;;;;2.64;65.27;96597.98;109680;1274;22460;-60
2022/01/09 11:15:18;;;;;;;29.50;26.50;;;;;;;2.63;65.56;96591.59;109667;1274;22565;-60
2022/01/09 11:17:47;;;;;;;28.40;25.50;;;;;;;2.64;65.50;96590.20;109673;1273;22447;-60
2022/01/09 11:20:17;;;;;;;29.20;26.40;;;;;;;2.67;64.92;96588.05;109660;1274;22504;-60
2022/01/09 11:22:47;;;;;;;35.00;31.50;;;;;;;2.67;65.39;96587.46;109636;1274;22637;-60
2022/01/09 11:25:40;;;;;;;36.30;32.20;;;;;;;2.71;65.37;96586.95;109656;1274;22269;-60